Canovanas, PR

9:16 PM AST on August 21, 2014 (GMT -0400)
Ciudad Jardin | Change Station
CLOSE
Current Station
Personal Weather Station
Location: Carolina, PR
Elevation: 10 ft
Nearby Weather Stations
Active Advisory: Flash Flood Watch

Elev 10 ft 18.37 °N, 65.93 °W | Updated 9 minutes ago

Scattered Clouds
Scattered Clouds
79.1 °F
Feels Like 84 °F
N
2.0
Wind Variable Wind from East
Gusts 3.0 mph

Today
High -- | Low -- °F
--% Chance of Precip.
Yesterday
High -- | Low -- °F
Precip. -- in
6:06 AM 6:46 PM
Waning Crescent, 11% visible
Pressure 29.95 in
Visibility 10.0 miles
Clouds Few 2100 ft
Scattered Clouds 4300 ft
Scattered Clouds 10000 ft
Heat Index 84 °F
Dew Point 78 °F
Humidity 95%
Rainfall 0.58 in
Snow Depth Not available.
UV 0 out of 12
Pollen Not available.
Air Quality Not available.
Flu Activity Not available.
METAR TJSJ 220056Z 07007KT 10SM FEW021 SCT043 SCT100 28/26 A2995 RMK AO2 SLP142 T02780261

More Conditions Fewer Conditions

Pressure 29.95 in
Visibility 10.0 miles
Clouds Few 2100 ft
Scattered Clouds 4300 ft
Scattered Clouds 10000 ft
Heat Index 84 °F
Dew Point 78 °F
Humidity 95%
Rainfall 0.58 in
Snow Depth Not available.
UV 0 out of 12
Pollen Not available.
Air Quality Not available.
Flu Activity Not available.
METAR TJSJ 220056Z 07007KT 10SM FEW021 SCT043 SCT100 28/26 A2995 RMK AO2 SLP142 T02780261

More Conditions Fewer Conditions

10-Day Weather Forecast

Almanac

Astronomy

Aug. 21, 2014 Rise Set
Actual Time 6:06 AM AST 6:46 PM AST
Civil Twilight 5:44 AM AST 7:08 PM AST
Nautical Twilight 5:18 AM AST 7:35 PM AST
Astronomical Twilight 4:51 AM AST 8:01 PM AST
Moon 2:47 AM AST (8/21) 4:00 PM AST (8/21)
Length of Visible Light 13h 24m
Length of Day
12h 39m
Tomorrow will be 0m 57s shorter.
Waning Crescent, 11% of the Moon is Illuminated
Today
Waning Crescent
Aug 25
New
Sep 2
First Quarter
Sep 8
Full
Sep 15
Last Quarter

Community

WunderPhotos

Upload Photos

1,746,098 photos uploaded!

Nearby

Snow Depth

Station Depth Elevation
No new snow has been reported.

Earthquake Activity

City Distance Mag. Time & Date
No recent earthquake activity has been reported nearby.
Minimum magnitude displayed is 2.5.

Coastal Water Temperatures

Place Temperature
San Juan, PR 84.9 °F
Mayaguez, PR 84.0 °F
Esperanza, PR 84.9 °F

Nearby Weather Stations